sensor_id;sensor_type;location;lat;lon;timestamp;temperature;humidity
74420;DHT22;62855;50.718;-2.460;2024-02-26T00:00:07;32.18;9.00
74420;DHT22;62855;50.718;-2.460;2024-02-26T00:03:06;32.18;9.00
74420;DHT22;62855;50.718;-2.460;2024-02-26T00:06:06;32.18;9.00
74420;DHT22;62855;50.718;-2.460;2024-02-26T00:09:06;32.18;9.00
74420;DHT22;62855;50.718;-2.460;2024-02-26T00:12:06;32.18;9.00
74420;DHT22;62855;50.718;-2.460;2024-02-26T00:15:09;32.18;9.00
74420;DHT22;62855;50.718;-2.460;2024-02-26T00:18:06;32.18;9.00
74420;DHT22;62855;50.718;-2.460;2024-02-26T00:21:06;32.18;9.00
74420;DHT22;62855;50.718;-2.460;2024-02-26T00:24:06;32.18;9.00
74420;DHT22;62855;50.718;-2.460;2024-02-26T00:27:06;32.18;9.00
74420;DHT22;62855;50.718;-2.460;2024-02-26T00:30:06;32.18;9.00
74420;DHT22;62855;50.718;-2.460;2024-02-26T00:33:05;32.18;9.00
74420;DHT22;62855;50.718;-2.460;2024-02-26T00:36:05;32.18;9.00
74420;DHT22;62855;50.718;-2.460;2024-02-26T00:39:07;32.18;9.00
74420;DHT22;62855;50.718;-2.460;2024-02-26T00:42:06;32.18;9.00
74420;DHT22;62855;50.718;-2.460;2024-02-26T00:45:07;32.18;9.00
74420;DHT22;62855;50.718;-2.460;2024-02-26T00:48:07;32.18;9.00
74420;DHT22;62855;50.718;-2.460;2024-02-26T00:51:07;32.18;9.00
74420;DHT22;62855;50.718;-2.460;2024-02-26T00:54:06;32.18;9.00
74420;DHT22;62855;50.718;-2.460;2024-02-26T00:57:06;32.18;9.00
74420;DHT22;62855;50.718;-2.460;2024-02-26T01:00:07;32.18;9.00
74420;DHT22;62855;50.718;-2.460;2024-02-26T01:03:06;32.18;9.00
74420;DHT22;62855;50.718;-2.460;2024-02-26T01:06:06;32.18;9.00
74420;DHT22;62855;50.718;-2.460;2024-02-26T01:09:06;32.18;9.00
74420;DHT22;62855;50.718;-2.460;2024-02-26T01:12:06;32.18;9.00
74420;DHT22;62855;50.718;-2.460;2024-02-26T01:15:06;32.18;9.00
74420;DHT22;62855;50.718;-2.460;2024-02-26T01:18:06;32.18;9.00
74420;DHT22;62855;50.718;-2.460;2024-02-26T01:21:06;32.18;9.00
74420;DHT22;62855;50.718;-2.460;2024-02-26T01:24:06;32.18;9.00
74420;DHT22;62855;50.718;-2.460;2024-02-26T01:27:06;32.18;9.00
74420;DHT22;62855;50.718;-2.460;2024-02-26T01:30:07;32.18;9.00
74420;DHT22;62855;50.718;-2.460;2024-02-26T01:33:06;32.18;9.00
74420;DHT22;62855;50.718;-2.460;2024-02-26T01:36:06;32.18;9.00
74420;DHT22;62855;50.718;-2.460;2024-02-26T01:39:06;32.18;9.00
74420;DHT22;62855;50.718;-2.460;2024-02-26T01:42:06;32.18;9.00
74420;DHT22;62855;50.718;-2.460;2024-02-26T01:45:12;32.18;9.00
74420;DHT22;62855;50.718;-2.460;2024-02-26T01:48:06;32.18;9.00
74420;DHT22;62855;50.718;-2.460;2024-02-26T01:51:05;32.18;9.00
74420;DHT22;62855;50.718;-2.460;2024-02-26T01:54:06;32.18;9.00
74420;DHT22;62855;50.718;-2.460;2024-02-26T01:57:06;32.18;9.00
74420;DHT22;62855;50.718;-2.460;2024-02-26T02:00:07;32.18;9.00
74420;DHT22;62855;50.718;-2.460;2024-02-26T02:03:06;32.18;9.00
74420;DHT22;62855;50.718;-2.460;2024-02-26T02:06:06;32.18;9.00
74420;DHT22;62855;50.718;-2.460;2024-02-26T02:09:06;32.18;9.00
74420;DHT22;62855;50.718;-2.460;2024-02-26T02:12:06;32.18;9.00
74420;DHT22;62855;50.718;-2.460;2024-02-26T02:15:08;32.18;9.00
74420;DHT22;62855;50.718;-2.460;2024-02-26T02:18:06;32.18;9.00
74420;DHT22;62855;50.718;-2.460;2024-02-26T02:21:06;32.18;9.00
74420;DHT22;62855;50.718;-2.460;2024-02-26T02:24:06;32.18;9.00
74420;DHT22;62855;50.718;-2.460;2024-02-26T02:27:07;32.18;9.00
74420;DHT22;62855;50.718;-2.460;2024-02-26T02:30:07;32.18;9.00
74420;DHT22;62855;50.718;-2.460;2024-02-26T02:33:06;32.18;9.00
74420;DHT22;62855;50.718;-2.460;2024-02-26T02:36:06;32.18;9.00
74420;DHT22;62855;50.718;-2.460;2024-02-26T02:39:06;32.18;9.00
74420;DHT22;62855;50.718;-2.460;2024-02-26T02:42:06;32.18;9.00
74420;DHT22;62855;50.718;-2.460;2024-02-26T02:45:15;32.18;9.00
74420;DHT22;62855;50.718;-2.460;2024-02-26T02:48:05;32.18;9.00
74420;DHT22;62855;50.718;-2.460;2024-02-26T02:51:05;32.18;9.00
74420;DHT22;62855;50.718;-2.460;2024-02-26T02:54:06;32.18;9.00
74420;DHT22;62855;50.718;-2.460;2024-02-26T02:57:05;32.18;9.00
74420;DHT22;62855;50.718;-2.460;2024-02-26T03:00:06;32.18;9.00
74420;DHT22;62855;50.718;-2.460;2024-02-26T03:03:05;32.18;9.00
74420;DHT22;62855;50.718;-2.460;2024-02-26T03:06:06;32.18;9.00
74420;DHT22;62855;50.718;-2.460;2024-02-26T03:09:05;32.18;9.00
74420;DHT22;62855;50.718;-2.460;2024-02-26T03:12:05;32.18;9.00
74420;DHT22;62855;50.718;-2.460;2024-02-26T03:15:06;32.18;9.00
74420;DHT22;62855;50.718;-2.460;2024-02-26T03:18:06;32.18;9.00
74420;DHT22;62855;50.718;-2.460;2024-02-26T03:21:06;32.18;9.00
74420;DHT22;62855;50.718;-2.460;2024-02-26T03:24:06;32.18;9.00
74420;DHT22;62855;50.718;-2.460;2024-02-26T03:27:06;32.18;9.00
74420;DHT22;62855;50.718;-2.460;2024-02-26T03:30:07;32.18;9.00
74420;DHT22;62855;50.718;-2.460;2024-02-26T03:33:06;32.18;9.00
74420;DHT22;62855;50.718;-2.460;2024-02-26T03:36:06;32.18;9.00
74420;DHT22;62855;50.718;-2.460;2024-02-26T03:39:08;32.18;9.00
74420;DHT22;62855;50.718;-2.460;2024-02-26T03:42:06;32.18;9.00
74420;DHT22;62855;50.718;-2.460;2024-02-26T03:45:06;32.18;9.00
74420;DHT22;62855;50.718;-2.460;2024-02-26T03:48:06;32.18;9.00
74420;DHT22;62855;50.718;-2.460;2024-02-26T03:51:06;32.18;9.00
74420;DHT22;62855;50.718;-2.460;2024-02-26T03:54:05;32.18;9.00
74420;DHT22;62855;50.718;-2.460;2024-02-26T03:57:05;32.18;9.00
74420;DHT22;62855;50.718;-2.460;2024-02-26T04:00:06;32.18;9.00
74420;DHT22;62855;50.718;-2.460;2024-02-26T04:03:08;32.18;9.00
74420;DHT22;62855;50.718;-2.460;2024-02-26T04:06:08;32.18;9.00
74420;DHT22;62855;50.718;-2.460;2024-02-26T04:09:06;32.18;9.00
74420;DHT22;62855;50.718;-2.460;2024-02-26T04:12:07;32.18;9.00
74420;DHT22;62855;50.718;-2.460;2024-02-26T04:15:07;32.18;9.00
74420;DHT22;62855;50.718;-2.460;2024-02-26T04:18:06;32.18;9.00
74420;DHT22;62855;50.718;-2.460;2024-02-26T04:21:05;32.18;9.00
74420;DHT22;62855;50.718;-2.460;2024-02-26T04:24:05;32.18;9.00
74420;DHT22;62855;50.718;-2.460;2024-02-26T04:27:06;32.18;9.00
74420;DHT22;62855;50.718;-2.460;2024-02-26T04:30:07;32.18;9.00
74420;DHT22;62855;50.718;-2.460;2024-02-26T04:33:06;32.18;9.00
74420;DHT22;62855;50.718;-2.460;2024-02-26T04:36:12;32.18;9.00
74420;DHT22;62855;50.718;-2.460;2024-02-26T04:39:05;32.18;9.00
74420;DHT22;62855;50.718;-2.460;2024-02-26T04:42:05;32.18;9.00
74420;DHT22;62855;50.718;-2.460;2024-02-26T04:45:06;32.18;9.00
74420;DHT22;62855;50.718;-2.460;2024-02-26T04:48:06;32.18;9.00
74420;DHT22;62855;50.718;-2.460;2024-02-26T04:51:08;32.18;9.00
74420;DHT22;62855;50.718;-2.460;2024-02-26T04:54:05;32.18;9.00
74420;DHT22;62855;50.718;-2.460;2024-02-26T04:57:05;32.18;9.00
74420;DHT22;62855;50.718;-2.460;2024-02-26T05:00:06;32.18;9.00
74420;DHT22;62855;50.718;-2.460;2024-02-26T05:03:06;32.18;9.00
74420;DHT22;62855;50.718;-2.460;2024-02-26T05:06:05;32.18;9.00
74420;DHT22;62855;50.718;-2.460;2024-02-26T05:09:06;32.18;9.00
74420;DHT22;62855;50.718;-2.460;2024-02-26T05:12:06;32.18;9.00
74420;DHT22;62855;50.718;-2.460;2024-02-26T05:15:07;32.18;9.00
74420;DHT22;62855;50.718;-2.460;2024-02-26T05:18:06;32.18;9.00
74420;DHT22;62855;50.718;-2.460;2024-02-26T05:21:07;32.18;9.00
74420;DHT22;62855;50.718;-2.460;2024-02-26T05:24:06;32.18;9.00
74420;DHT22;62855;50.718;-2.460;2024-02-26T05:27:06;32.18;9.00
74420;DHT22;62855;50.718;-2.460;2024-02-26T05:30:07;32.18;9.00
74420;DHT22;62855;50.718;-2.460;2024-02-26T05:33:05;32.18;9.00
74420;DHT22;62855;50.718;-2.460;2024-02-26T05:36:06;32.18;9.00
74420;DHT22;62855;50.718;-2.460;2024-02-26T05:39:06;32.18;9.00
74420;DHT22;62855;50.718;-2.460;2024-02-26T05:42:06;32.18;9.00
74420;DHT22;62855;50.718;-2.460;2024-02-26T05:45:08;32.18;9.00
74420;DHT22;62855;50.718;-2.460;2024-02-26T05:48:06;32.18;9.00
74420;DHT22;62855;50.718;-2.460;2024-02-26T05:51:06;32.18;9.00
74420;DHT22;62855;50.718;-2.460;2024-02-26T05:54:06;32.18;9.00
74420;DHT22;62855;50.718;-2.460;2024-02-26T05:57:05;32.18;9.00
74420;DHT22;62855;50.718;-2.460;2024-02-26T06:00:06;32.18;9.00
74420;DHT22;62855;50.718;-2.460;2024-02-26T06:03:05;32.18;9.00
74420;DHT22;62855;50.718;-2.460;2024-02-26T06:06:06;32.18;9.00
74420;DHT22;62855;50.718;-2.460;2024-02-26T06:09:06;32.18;9.00
74420;DHT22;62855;50.718;-2.460;2024-02-26T06:12:07;32.18;9.00
74420;DHT22;62855;50.718;-2.460;2024-02-26T06:15:06;32.18;9.00
74420;DHT22;62855;50.718;-2.460;2024-02-26T06:18:06;32.18;9.00
74420;DHT22;62855;50.718;-2.460;2024-02-26T06:21:09;32.18;9.00
74420;DHT22;62855;50.718;-2.460;2024-02-26T06:24:06;32.18;9.00
74420;DHT22;62855;50.718;-2.460;2024-02-26T06:27:06;32.18;9.00
74420;DHT22;62855;50.718;-2.460;2024-02-26T06:30:07;32.18;9.00
74420;DHT22;62855;50.718;-2.460;2024-02-26T06:33:08;32.18;9.00
74420;DHT22;62855;50.718;-2.460;2024-02-26T06:36:06;32.18;9.00
74420;DHT22;62855;50.718;-2.460;2024-02-26T06:39:06;32.18;9.00
74420;DHT22;62855;50.718;-2.460;2024-02-26T06:42:06;32.18;9.00
74420;DHT22;62855;50.718;-2.460;2024-02-26T06:45:08;32.18;9.00
74420;DHT22;62855;50.718;-2.460;2024-02-26T06:48:06;32.18;9.00
74420;DHT22;62855;50.718;-2.460;2024-02-26T06:51:05;32.18;9.00
74420;DHT22;62855;50.718;-2.460;2024-02-26T06:54:06;32.18;9.00
74420;DHT22;62855;50.718;-2.460;2024-02-26T06:57:06;32.18;9.00
74420;DHT22;62855;50.718;-2.460;2024-02-26T07:00:07;32.18;9.00
74420;DHT22;62855;50.718;-2.460;2024-02-26T07:03:06;32.18;9.00
74420;DHT22;62855;50.718;-2.460;2024-02-26T07:06:06;32.18;9.00
74420;DHT22;62855;50.718;-2.460;2024-02-26T07:09:06;32.18;9.00
74420;DHT22;62855;50.718;-2.460;2024-02-26T07:12:06;32.18;9.00
74420;DHT22;62855;50.718;-2.460;2024-02-26T07:15:07;32.18;9.00
74420;DHT22;62855;50.718;-2.460;2024-02-26T07:18:05;32.18;9.00
74420;DHT22;62855;50.718;-2.460;2024-02-26T07:21:05;32.18;9.00
74420;DHT22;62855;50.718;-2.460;2024-02-26T07:24:05;32.18;9.00
74420;DHT22;62855;50.718;-2.460;2024-02-26T07:27:05;32.18;9.00
74420;DHT22;62855;50.718;-2.460;2024-02-26T07:30:07;32.18;9.00
74420;DHT22;62855;50.718;-2.460;2024-02-26T07:33:06;32.18;9.00
74420;DHT22;62855;50.718;-2.460;2024-02-26T07:36:06;32.18;9.00
74420;DHT22;62855;50.718;-2.460;2024-02-26T07:39:06;32.18;9.00
74420;DHT22;62855;50.718;-2.460;2024-02-26T07:42:06;32.18;9.00
74420;DHT22;62855;50.718;-2.460;2024-02-26T07:45:06;32.18;9.00
74420;DHT22;62855;50.718;-2.460;2024-02-26T07:48:06;32.18;9.00
74420;DHT22;62855;50.718;-2.460;2024-02-26T07:51:06;32.18;9.00
74420;DHT22;62855;50.718;-2.460;2024-02-26T07:54:06;32.18;9.00
74420;DHT22;62855;50.718;-2.460;2024-02-26T07:57:05;33.08;0.00
74420;DHT22;62855;50.718;-2.460;2024-02-26T08:00:06;33.26;0.00
74420;DHT22;62855;50.718;-2.460;2024-02-26T08:03:05;33.26;0.00
74420;DHT22;62855;50.718;-2.460;2024-02-26T08:06:08;33.26;9.00
74420;DHT22;62855;50.718;-2.460;2024-02-26T08:09:05;33.26;9.00
74420;DHT22;62855;50.718;-2.460;2024-02-26T08:12:06;33.26;9.00
74420;DHT22;62855;50.718;-2.460;2024-02-26T08:15:07;33.26;0.00
74420;DHT22;62855;50.718;-2.460;2024-02-26T08:18:06;33.26;0.00
74420;DHT22;62855;50.718;-2.460;2024-02-26T08:21:06;33.26;0.00
74420;DHT22;62855;50.718;-2.460;2024-02-26T08:24:06;33.26;0.00
74420;DHT22;62855;50.718;-2.460;2024-02-26T08:27:05;33.26;0.00
74420;DHT22;62855;50.718;-2.460;2024-02-26T08:30:06;33.44;0.00
74420;DHT22;62855;50.718;-2.460;2024-02-26T08:33:06;33.44;1.00
74420;DHT22;62855;50.718;-2.460;2024-02-26T08:36:06;33.44;1.00
74420;DHT22;62855;50.718;-2.460;2024-02-26T08:39:06;33.62;1.00
74420;DHT22;62855;50.718;-2.460;2024-02-26T08:42:06;32.00;1.00
74420;DHT22;62855;50.718;-2.460;2024-02-26T08:45:07;32.18;1.00
74420;DHT22;62855;50.718;-2.460;2024-02-26T08:48:07;32.18;1.00
74420;DHT22;62855;50.718;-2.460;2024-02-26T08:51:06;32.36;1.00
74420;DHT22;62855;50.718;-2.460;2024-02-26T08:54:05;32.36;1.00
74420;DHT22;62855;50.718;-2.460;2024-02-26T08:57:06;32.54;0.00
74420;DHT22;62855;50.718;-2.460;2024-02-26T09:00:07;32.54;0.00
74420;DHT22;62855;50.718;-2.460;2024-02-26T09:03:06;32.36;0.00
74420;DHT22;62855;50.718;-2.460;2024-02-26T09:06:06;32.36;0.00
74420;DHT22;62855;50.718;-2.460;2024-02-26T09:09:06;32.54;0.00
74420;DHT22;62855;50.718;-2.460;2024-02-26T09:12:06;32.54;9.00
74420;DHT22;62855;50.718;-2.460;2024-02-26T09:15:07;32.54;9.00
74420;DHT22;62855;50.718;-2.460;2024-02-26T09:18:06;32.72;9.00
74420;DHT22;62855;50.718;-2.460;2024-02-26T09:21:06;32.72;9.00
74420;DHT22;62855;50.718;-2.460;2024-02-26T09:24:05;32.72;9.00
74420;DHT22;62855;50.718;-2.460;2024-02-26T09:27:06;32.72;9.00
74420;DHT22;62855;50.718;-2.460;2024-02-26T09:30:06;32.72;9.00
74420;DHT22;62855;50.718;-2.460;2024-02-26T09:33:06;32.90;9.00
74420;DHT22;62855;50.718;-2.460;2024-02-26T09:36:06;32.90;9.00
74420;DHT22;62855;50.718;-2.460;2024-02-26T09:39:06;32.90;9.00
74420;DHT22;62855;50.718;-2.460;2024-02-26T09:42:05;33.08;9.00
74420;DHT22;62855;50.718;-2.460;2024-02-26T09:45:06;33.26;9.00
74420;DHT22;62855;50.718;-2.460;2024-02-26T09:48:08;33.26;9.00
74420;DHT22;62855;50.718;-2.460;2024-02-26T09:51:06;33.26;8.00
74420;DHT22;62855;50.718;-2.460;2024-02-26T09:54:07;33.44;8.00
74420;DHT22;62855;50.718;-2.460;2024-02-26T09:57:09;33.44;8.00
74420;DHT22;62855;50.718;-2.460;2024-02-26T10:00:08;33.44;7.00
74420;DHT22;62855;50.718;-2.460;2024-02-26T10:03:06;33.62;6.00
74420;DHT22;62855;50.718;-2.460;2024-02-26T10:06:07;33.62;6.00
74420;DHT22;62855;50.718;-2.460;2024-02-26T10:09:05;33.62;6.00
74420;DHT22;62855;50.718;-2.460;2024-02-26T10:12:08;32.00;6.00
74420;DHT22;62855;50.718;-2.460;2024-02-26T10:15:11;33.62;6.00
74420;DHT22;62855;50.718;-2.460;2024-02-26T10:18:06;33.62;6.00
74420;DHT22;62855;50.718;-2.460;2024-02-26T10:21:06;33.62;6.00
74420;DHT22;62855;50.718;-2.460;2024-02-26T10:24:13;33.62;6.00
74420;DHT22;62855;50.718;-2.460;2024-02-26T10:27:06;32.00;6.00
74420;DHT22;62855;50.718;-2.460;2024-02-26T10:30:16;32.00;6.00
74420;DHT22;62855;50.718;-2.460;2024-02-26T10:33:07;33.62;5.00
74420;DHT22;62855;50.718;-2.460;2024-02-26T10:36:08;32.00;5.00
74420;DHT22;62855;50.718;-2.460;2024-02-26T10:39:05;32.00;5.00
74420;DHT22;62855;50.718;-2.460;2024-02-26T10:42:12;32.18;5.00
74420;DHT22;62855;50.718;-2.460;2024-02-26T10:45:06;32.18;5.00
74420;DHT22;62855;50.718;-2.460;2024-02-26T10:48:09;32.54;5.00
74420;DHT22;62855;50.718;-2.460;2024-02-26T10:51:06;32.72;5.00
74420;DHT22;62855;50.718;-2.460;2024-02-26T10:54:07;32.90;5.00
74420;DHT22;62855;50.718;-2.460;2024-02-26T10:57:06;32.90;5.00
74420;DHT22;62855;50.718;-2.460;2024-02-26T11:00:07;32.90;5.00
74420;DHT22;62855;50.718;-2.460;2024-02-26T11:03:06;32.72;5.00
74420;DHT22;62855;50.718;-2.460;2024-02-26T11:06:06;32.90;5.00
74420;DHT22;62855;50.718;-2.460;2024-02-26T11:09:08;33.08;5.00
74420;DHT22;62855;50.718;-2.460;2024-02-26T11:12:06;33.08;4.00
74420;DHT22;62855;50.718;-2.460;2024-02-26T11:15:06;33.08;3.00
74420;DHT22;62855;50.718;-2.460;2024-02-26T11:18:07;33.26;3.00
74420;DHT22;62855;50.718;-2.460;2024-02-26T11:21:06;33.44;4.00
74420;DHT22;62855;50.718;-2.460;2024-02-26T11:24:06;33.62;0.00
74420;DHT22;62855;50.718;-2.460;2024-02-26T11:27:06;32.00;0.00
74420;DHT22;62855;50.718;-2.460;2024-02-26T11:30:09;32.00;9.00
74420;DHT22;62855;50.718;-2.460;2024-02-26T11:33:06;32.18;9.00
74420;DHT22;62855;50.718;-2.460;2024-02-26T11:36:08;32.00;9.00
74420;DHT22;62855;50.718;-2.460;2024-02-26T11:39:08;32.00;8.00
74420;DHT22;62855;50.718;-2.460;2024-02-26T11:42:06;32.00;8.00
74420;DHT22;62855;50.718;-2.460;2024-02-26T11:48:11;32.36;7.00
74420;DHT22;62855;50.718;-2.460;2024-02-26T11:51:06;32.72;8.00
74420;DHT22;62855;50.718;-2.460;2024-02-26T11:54:06;33.08;8.00
74420;DHT22;62855;50.718;-2.460;2024-02-26T12:00:12;33.26;4.00
74420;DHT22;62855;50.718;-2.460;2024-02-26T12:03:07;33.26;4.00
74420;DHT22;62855;50.718;-2.460;2024-02-26T12:06:06;33.44;4.00
74420;DHT22;62855;50.718;-2.460;2024-02-26T12:09:07;32.00;5.00
74420;DHT22;62855;50.718;-2.460;2024-02-26T12:12:07;32.18;4.00
74420;DHT22;62855;50.718;-2.460;2024-02-26T12:15:08;33.62;4.00
74420;DHT22;62855;50.718;-2.460;2024-02-26T12:18:07;33.44;4.00
74420;DHT22;62855;50.718;-2.460;2024-02-26T12:21:06;33.44;4.00
74420;DHT22;62855;50.718;-2.460;2024-02-26T12:24:10;33.62;4.00
74420;DHT22;62855;50.718;-2.460;2024-02-26T12:27:06;32.00;4.00
74420;DHT22;62855;50.718;-2.460;2024-02-26T12:30:07;32.18;3.00
74420;DHT22;62855;50.718;-2.460;2024-02-26T12:33:06;32.18;2.00
74420;DHT22;62855;50.718;-2.460;2024-02-26T12:36:06;32.18;2.00
74420;DHT22;62855;50.718;-2.460;2024-02-26T12:39:07;32.18;2.00
74420;DHT22;62855;50.718;-2.460;2024-02-26T12:42:06;32.36;2.00
74420;DHT22;62855;50.718;-2.460;2024-02-26T12:45:07;32.36;3.00
74420;DHT22;62855;50.718;-2.460;2024-02-26T12:48:06;32.18;4.00
74420;DHT22;62855;50.718;-2.460;2024-02-26T12:51:08;32.00;4.00
74420;DHT22;62855;50.718;-2.460;2024-02-26T12:54:05;33.62;4.00
74420;DHT22;62855;50.718;-2.460;2024-02-26T12:57:06;33.62;4.00
74420;DHT22;62855;50.718;-2.460;2024-02-26T13:00:07;33.62;5.00
74420;DHT22;62855;50.718;-2.460;2024-02-26T13:03:11;33.62;4.00
74420;DHT22;62855;50.718;-2.460;2024-02-26T13:06:06;32.00;3.00
74420;DHT22;62855;50.718;-2.460;2024-02-26T13:09:06;32.00;2.00
74420;DHT22;62855;50.718;-2.460;2024-02-26T13:12:07;32.00;2.00
74420;DHT22;62855;50.718;-2.460;2024-02-26T13:15:07;32.00;3.00
74420;DHT22;62855;50.718;-2.460;2024-02-26T13:18:09;32.00;3.00
74420;DHT22;62855;50.718;-2.460;2024-02-26T13:21:10;32.36;4.00
74420;DHT22;62855;50.718;-2.460;2024-02-26T13:24:06;32.36;4.00
74420;DHT22;62855;50.718;-2.460;2024-02-26T13:27:07;32.36;4.00
74420;DHT22;62855;50.718;-2.460;2024-02-26T13:30:09;32.36;3.00
74420;DHT22;62855;50.718;-2.460;2024-02-26T13:33:10;32.36;3.00
74420;DHT22;62855;50.718;-2.460;2024-02-26T13:36:06;32.36;2.00
74420;DHT22;62855;50.718;-2.460;2024-02-26T13:39:07;32.36;2.00
74420;DHT22;62855;50.718;-2.460;2024-02-26T13:42:07;32.54;2.00
74420;DHT22;62855;50.718;-2.460;2024-02-26T13:45:07;32.72;2.00
74420;DHT22;62855;50.718;-2.460;2024-02-26T13:48:07;32.54;1.00
74420;DHT22;62855;50.718;-2.460;2024-02-26T13:51:05;32.54;1.00
74420;DHT22;62855;50.718;-2.460;2024-02-26T13:54:06;32.54;1.00
74420;DHT22;62855;50.718;-2.460;2024-02-26T13:57:05;32.72;1.00
74420;DHT22;62855;50.718;-2.460;2024-02-26T14:00:08;32.90;1.00
74420;DHT22;62855;50.718;-2.460;2024-02-26T14:03:05;33.08;1.00
74420;DHT22;62855;50.718;-2.460;2024-02-26T14:06:05;33.26;2.00
74420;DHT22;62855;50.718;-2.460;2024-02-26T14:09:06;33.08;2.00
74420;DHT22;62855;50.718;-2.460;2024-02-26T14:12:06;32.90;2.00
74420;DHT22;62855;50.718;-2.460;2024-02-26T14:15:07;32.90;2.00
74420;DHT22;62855;50.718;-2.460;2024-02-26T14:18:07;32.90;2.00
74420;DHT22;62855;50.718;-2.460;2024-02-26T14:21:05;32.90;2.00
74420;DHT22;62855;50.718;-2.460;2024-02-26T14:24:06;32.90;1.00
74420;DHT22;62855;50.718;-2.460;2024-02-26T14:27:08;33.08;1.00
74420;DHT22;62855;50.718;-2.460;2024-02-26T14:30:07;33.26;1.00
74420;DHT22;62855;50.718;-2.460;2024-02-26T14:33:06;33.26;1.00
74420;DHT22;62855;50.718;-2.460;2024-02-26T14:36:06;33.08;1.00
74420;DHT22;62855;50.718;-2.460;2024-02-26T14:39:05;32.90;1.00
74420;DHT22;62855;50.718;-2.460;2024-02-26T14:42:05;32.90;1.00
74420;DHT22;62855;50.718;-2.460;2024-02-26T14:45:07;32.90;2.00
74420;DHT22;62855;50.718;-2.460;2024-02-26T14:48:07;32.90;1.00
74420;DHT22;62855;50.718;-2.460;2024-02-26T14:51:05;33.08;2.00
74420;DHT22;62855;50.718;-2.460;2024-02-26T14:54:06;33.08;1.00
74420;DHT22;62855;50.718;-2.460;2024-02-26T14:57:06;33.08;1.00
74420;DHT22;62855;50.718;-2.460;2024-02-26T15:00:07;32.90;1.00
74420;DHT22;62855;50.718;-2.460;2024-02-26T15:03:07;32.90;1.00
74420;DHT22;62855;50.718;-2.460;2024-02-26T15:06:06;32.72;1.00
74420;DHT22;62855;50.718;-2.460;2024-02-26T15:09:06;32.72;2.00
74420;DHT22;62855;50.718;-2.460;2024-02-26T15:12:06;32.72;2.00
74420;DHT22;62855;50.718;-2.460;2024-02-26T15:15:07;32.72;2.00
74420;DHT22;62855;50.718;-2.460;2024-02-26T15:18:06;32.72;1.00
74420;DHT22;62855;50.718;-2.460;2024-02-26T15:21:06;32.54;1.00
74420;DHT22;62855;50.718;-2.460;2024-02-26T15:24:06;32.54;2.00
74420;DHT22;62855;50.718;-2.460;2024-02-26T15:27:05;32.54;1.00
74420;DHT22;62855;50.718;-2.460;2024-02-26T15:30:07;32.54;1.00
74420;DHT22;62855;50.718;-2.460;2024-02-26T15:33:06;32.72;2.00
74420;DHT22;62855;50.718;-2.460;2024-02-26T15:36:07;32.72;2.00
74420;DHT22;62855;50.718;-2.460;2024-02-26T15:39:06;32.72;2.00
74420;DHT22;62855;50.718;-2.460;2024-02-26T15:42:07;32.72;2.00
74420;DHT22;62855;50.718;-2.460;2024-02-26T15:45:06;32.72;1.00
74420;DHT22;62855;50.718;-2.460;2024-02-26T15:48:07;32.72;1.00
74420;DHT22;62855;50.718;-2.460;2024-02-26T15:51:05;32.54;1.00
74420;DHT22;62855;50.718;-2.460;2024-02-26T15:54:07;32.36;1.00
74420;DHT22;62855;50.718;-2.460;2024-02-26T15:57:06;32.18;1.00
74420;DHT22;62855;50.718;-2.460;2024-02-26T16:00:07;32.18;2.00
74420;DHT22;62855;50.718;-2.460;2024-02-26T16:03:06;32.36;2.00
74420;DHT22;62855;50.718;-2.460;2024-02-26T16:06:11;32.36;2.00
74420;DHT22;62855;50.718;-2.460;2024-02-26T16:09:06;32.54;2.00
74420;DHT22;62855;50.718;-2.460;2024-02-26T16:12:11;32.54;2.00
74420;DHT22;62855;50.718;-2.460;2024-02-26T16:15:06;32.72;2.00
74420;DHT22;62855;50.718;-2.460;2024-02-26T16:18:06;32.72;2.00
74420;DHT22;62855;50.718;-2.460;2024-02-26T16:21:06;32.72;2.00
74420;DHT22;62855;50.718;-2.460;2024-02-26T16:24:06;32.72;2.00
74420;DHT22;62855;50.718;-2.460;2024-02-26T16:27:06;32.72;2.00
74420;DHT22;62855;50.718;-2.460;2024-02-26T16:30:08;32.36;2.00
74420;DHT22;62855;50.718;-2.460;2024-02-26T16:33:06;32.18;3.00
74420;DHT22;62855;50.718;-2.460;2024-02-26T16:36:06;32.00;3.00
74420;DHT22;62855;50.718;-2.460;2024-02-26T16:39:06;33.62;4.00
74420;DHT22;62855;50.718;-2.460;2024-02-26T16:42:06;33.44;4.00
74420;DHT22;62855;50.718;-2.460;2024-02-26T16:45:07;33.26;4.00
74420;DHT22;62855;50.718;-2.460;2024-02-26T16:48:06;33.26;5.00
74420;DHT22;62855;50.718;-2.460;2024-02-26T16:51:06;33.08;5.00
74420;DHT22;62855;50.718;-2.460;2024-02-26T16:54:07;33.08;5.00
74420;DHT22;62855;50.718;-2.460;2024-02-26T16:57:06;32.90;6.00
74420;DHT22;62855;50.718;-2.460;2024-02-26T17:00:07;32.90;6.00
74420;DHT22;62855;50.718;-2.460;2024-02-26T17:03:05;32.72;6.00
74420;DHT22;62855;50.718;-2.460;2024-02-26T17:06:07;32.72;6.00
74420;DHT22;62855;50.718;-2.460;2024-02-26T17:09:05;32.54;7.00
74420;DHT22;62855;50.718;-2.460;2024-02-26T17:12:06;32.36;7.00
74420;DHT22;62855;50.718;-2.460;2024-02-26T17:15:06;32.36;8.00
74420;DHT22;62855;50.718;-2.460;2024-02-26T17:18:05;32.18;8.00
74420;DHT22;62855;50.718;-2.460;2024-02-26T17:21:05;32.18;8.00
74420;DHT22;62855;50.718;-2.460;2024-02-26T17:24:06;32.00;9.00
74420;DHT22;62855;50.718;-2.460;2024-02-26T17:27:06;32.00;9.00
74420;DHT22;62855;50.718;-2.460;2024-02-26T17:30:06;33.62;9.00
74420;DHT22;62855;50.718;-2.460;2024-02-26T17:33:06;33.44;2.00
74420;DHT22;62855;50.718;-2.460;2024-02-26T17:36:06;33.26;3.00
74420;DHT22;62855;50.718;-2.460;2024-02-26T17:39:06;33.26;3.00
74420;DHT22;62855;50.718;-2.460;2024-02-26T17:42:06;33.08;3.00
74420;DHT22;62855;50.718;-2.460;2024-02-26T17:45:06;32.90;3.00
74420;DHT22;62855;50.718;-2.460;2024-02-26T17:48:06;32.90;4.00
74420;DHT22;62855;50.718;-2.460;2024-02-26T17:51:06;32.72;4.00
74420;DHT22;62855;50.718;-2.460;2024-02-26T17:54:06;32.72;4.00
74420;DHT22;62855;50.718;-2.460;2024-02-26T17:57:05;32.72;4.00
74420;DHT22;62855;50.718;-2.460;2024-02-26T18:00:07;32.54;4.00
74420;DHT22;62855;50.718;-2.460;2024-02-26T18:03:06;32.36;4.00
74420;DHT22;62855;50.718;-2.460;2024-02-26T18:06:05;32.36;4.00
74420;DHT22;62855;50.718;-2.460;2024-02-26T18:09:05;32.36;4.00
74420;DHT22;62855;50.718;-2.460;2024-02-26T18:12:09;32.18;4.00
74420;DHT22;62855;50.718;-2.460;2024-02-26T18:15:06;32.18;4.00
74420;DHT22;62855;50.718;-2.460;2024-02-26T18:18:05;32.18;5.00
74420;DHT22;62855;50.718;-2.460;2024-02-26T18:21:06;32.18;5.00
74420;DHT22;62855;50.718;-2.460;2024-02-26T18:24:35;32.00;5.00
74420;DHT22;62855;50.718;-2.460;2024-02-26T18:27:06;32.00;5.00
74420;DHT22;62855;50.718;-2.460;2024-02-26T18:30:07;33.62;5.00
74420;DHT22;62855;50.718;-2.460;2024-02-26T18:33:06;33.62;5.00
74420;DHT22;62855;50.718;-2.460;2024-02-26T18:36:06;33.44;5.00
74420;DHT22;62855;50.718;-2.460;2024-02-26T18:39:06;33.44;5.00
74420;DHT22;62855;50.718;-2.460;2024-02-26T18:42:06;33.44;5.00
74420;DHT22;62855;50.718;-2.460;2024-02-26T18:45:06;33.44;6.00
74420;DHT22;62855;50.718;-2.460;2024-02-26T18:48:06;33.44;6.00
74420;DHT22;62855;50.718;-2.460;2024-02-26T18:51:05;33.26;6.00
74420;DHT22;62855;50.718;-2.460;2024-02-26T18:54:06;33.26;6.00
74420;DHT22;62855;50.718;-2.460;2024-02-26T18:57:05;33.08;6.00
74420;DHT22;62855;50.718;-2.460;2024-02-26T19:00:08;33.08;6.00